Time;durP1;ratioP1;P1;durP2;ratioP2;P2;SDS_P1;SDS_P2;PMS_P1;PMS_P2;Temp;Humidity;BMP_temperature;BMP_pressure;BME280_temperature;BME280_humidity;BME280_pressure;Samples;Min_cycle;Max_cycle;Signal;HPM_P1;HPM_P2
2022/08/26 00:01:58;;;;;;;10.58;3.72;;;;;;;19.13;94.46;96477.44;1678056;83;21000;-87
2022/08/26 00:04:24;;;;;;;8.38;3.70;;;;;;;19.11;94.54;96476.88;1697444;84;21432;-87
2022/08/26 00:06:50;;;;;;;8.58;4.12;;;;;;;19.03;94.34;96462.74;1662953;83;20944;-87
2022/08/26 00:09:16;;;;;;;9.23;4.67;;;;;;;19.09;93.97;96475.00;1692438;83;21023;-87
2022/08/26 00:11:43;;;;;;;13.48;4.37;;;;;;;19.08;94.21;96473.92;1697010;83;21490;-87
2022/08/26 00:14:09;;;;;;;7.03;4.10;;;;;;;19.00;94.06;96472.95;1706661;82;20991;-87
2022/08/26 00:16:35;;;;;;;8.95;4.12;;;;;;;18.94;93.58;96471.25;1706639;83;21371;-87
2022/08/26 00:19:00;;;;;;;12.88;4.40;;;;;;;18.87;93.04;96463.47;1703695;82;21001;-87
2022/08/26 00:21:26;;;;;;;8.80;3.30;;;;;;;18.86;93.04;96464.50;1705467;82;21052;-86
2022/08/26 00:23:52;;;;;;;11.73;3.77;;;;;;;18.85;93.38;96467.64;1703912;84;21003;-87
2022/08/26 00:26:18;;;;;;;12.58;3.62;;;;;;;18.83;93.08;96461.02;1674228;84;21006;-87
2022/08/26 00:28:44;;;;;;;10.63;4.30;;;;;;;18.78;93.22;96459.09;1720776;81;21007;-87
2022/08/26 00:31:10;;;;;;;8.48;3.58;;;;;;;18.74;93.25;96460.59;1731035;81;20922;-87
2022/08/26 00:33:37;;;;;;;9.13;3.47;;;;;;;18.69;93.31;96463.61;1727947;81;21010;-87
2022/08/26 00:36:03;;;;;;;8.13;3.98;;;;;;;18.66;93.03;96459.61;1725539;83;21387;-87
2022/08/26 00:38:29;;;;;;;6.65;3.45;;;;;;;18.65;93.08;96458.01;1724622;83;20968;-87
2022/08/26 00:40:56;;;;;;;13.93;3.90;;;;;;;18.61;93.18;96455.53;1716557;83;21031;-87
2022/08/26 00:43:23;;;;;;;7.67;3.70;;;;;;;18.58;93.52;96461.26;1720521;81;21343;-87
2022/08/26 00:46:00;;;;;;;9.73;4.42;;;;;;;18.56;93.38;96453.59;1721630;81;20987;-87
2022/08/26 00:48:27;;;;;;;10.05;4.20;;;;;;;18.52;92.89;96455.06;1707892;81;21014;-87
2022/08/26 00:51:00;;;;;;;10.63;4.53;;;;;;;18.49;93.18;96447.64;1724575;81;21071;-86
2022/08/26 00:53:30;;;;;;;7.17;3.60;;;;;;;18.46;93.70;96451.24;1718151;82;21038;-87
2022/08/26 00:56:11;;;;;;;8.33;4.72;;;;;;;18.44;94.15;96448.05;1717227;81;20991;-87
2022/08/26 00:58:36;;;;;;;6.97;3.92;;;;;;;18.42;93.50;96454.86;1727421;83;21035;-87
2022/08/26 01:01:03;;;;;;;7.40;3.65;;;;;;;18.38;92.47;96456.32;1726903;81;21446;-87
2022/08/26 01:03:31;;;;;;;10.50;3.83;;;;;;;18.34;92.65;96447.81;1722101;83;21024;-87
2022/08/26 01:05:57;;;;;;;9.85;4.00;;;;;;;18.33;92.28;96448.32;1723771;81;20992;-87
2022/08/26 01:08:23;;;;;;;9.50;4.37;;;;;;;18.28;92.00;96449.53;1726293;81;20935;-87
2022/08/26 01:10:50;;;;;;;9.38;4.28;;;;;;;18.26;92.59;96445.81;1730365;81;21054;-87
2022/08/26 01:13:15;;;;;;;6.70;4.03;;;;;;;18.28;92.27;96453.48;1719655;83;20971;-87
2022/08/26 01:15:48;;;;;;;8.25;4.53;;;;;;;18.21;92.13;96448.31;1723669;81;20944;-87
2022/08/26 01:18:14;;;;;;;10.80;4.35;;;;;;;18.19;92.19;96449.57;1727893;81;21382;-86
2022/08/26 01:20:57;;;;;;;10.03;3.80;;;;;;;18.19;91.99;96447.73;1726392;81;21091;-87
2022/08/26 01:23:22;;;;;;;7.97;3.65;;;;;;;18.20;92.23;96446.70;1722870;81;21330;-86
2022/08/26 01:25:54;;;;;;;7.85;3.90;;;;;;;18.22;92.68;96447.80;1728087;82;21066;-87
2022/08/26 01:28:26;;;;;;;10.98;4.30;;;;;;;18.12;92.97;96427.34;1725846;81;21068;-85
2022/08/26 01:30:52;;;;;;;7.53;4.30;;;;;;;18.23;93.20;96441.53;1728823;83;20952;-85
2022/08/26 01:33:25;;;;;;;9.48;4.62;;;;;;;18.20;92.58;96438.02;1728047;81;21010;-85
2022/08/26 01:35:50;;;;;;;9.78;4.12;;;;;;;18.19;92.75;96441.68;1724719;83;21026;-85
2022/08/26 01:38:17;;;;;;;7.80;3.98;;;;;;;18.19;93.39;96444.31;1726116;81;21034;-85
2022/08/26 01:40:43;;;;;;;6.65;3.77;;;;;;;18.17;93.29;96443.22;1727810;83;21069;-85
2022/08/26 01:43:13;;;;;;;9.60;4.10;;;;;;;18.17;92.80;96444.54;1725696;81;21375;-84
2022/08/26 01:45:40;;;;;;;8.38;4.03;;;;;;;18.17;92.66;96440.59;1715468;81;21007;-85
2022/08/26 01:48:07;;;;;;;8.85;4.05;;;;;;;18.21;92.46;96444.88;1721345;83;21066;-85
2022/08/26 01:50:34;;;;;;;13.68;4.35;;;;;;;18.20;92.23;96445.91;1729605;81;21374;-86
2022/08/26 01:53:05;;;;;;;9.60;4.42;;;;;;;18.17;91.87;96443.74;1725495;81;21047;-87
2022/08/26 01:55:31;;;;;;;8.00;4.08;;;;;;;18.14;91.67;96443.69;1730301;81;21401;-87
2022/08/26 01:57:56;;;;;;;9.05;3.85;;;;;;;18.10;91.16;96442.55;1704484;82;21104;-84
2022/08/26 02:00:23;;;;;;;7.70;3.83;;;;;;;18.08;91.12;96438.55;1737882;81;20982;-87
2022/08/26 02:03:15;;;;;;;9.35;3.98;;;;;;;18.06;91.25;96440.09;1729516;81;21026;-87
2022/08/26 02:05:20;;;;;;;9.63;4.12;;;;;;;18.09;91.13;96435.69;1727607;81;21382;-87
2022/08/26 02:07:46;;;;;;;7.75;4.00;;;;;;;18.11;91.09;96438.89;1729403;81;20979;-87
2022/08/26 02:10:11;;;;;;;6.83;3.95;;;;;;;18.11;91.10;96432.83;1729948;83;21384;-87
2022/08/26 02:12:38;;;;;;;10.98;4.47;;;;;;;18.09;91.27;96431.75;1732073;81;20993;-87
2022/08/26 02:15:07;;;;;;;5.40;3.40;;;;;;;18.04;91.43;96428.98;1721756;81;20951;-86
2022/08/26 02:17:38;;;;;;;6.03;3.47;;;;;;;18.00;91.35;96431.27;1712141;81;21410;-87
2022/08/26 02:20:06;;;;;;;8.33;4.20;;;;;;;18.00;92.46;96427.84;1715352;83;21055;-87
2022/08/26 02:22:31;;;;;;;12.10;3.45;;;;;;;17.99;92.66;96430.98;1724714;83;20932;-87
2022/08/26 02:25:01;;;;;;;6.85;3.40;;;;;;;17.99;91.99;96432.30;1728105;83;20952;-87
2022/08/26 02:27:31;;;;;;;9.20;3.95;;;;;;;17.98;91.58;96433.33;1717442;83;21098;-87
2022/08/26 02:30:05;;;;;;;12.15;4.70;;;;;;;17.97;91.51;96430.92;1718885;81;21019;-87
2022/08/26 02:32:31;;;;;;;8.60;3.58;;;;;;;17.92;90.59;96428.98;1718934;83;21047;-86
2022/08/26 02:34:58;;;;;;;6.37;4.25;;;;;;;17.87;90.47;96422.78;1727250;81;21406;-87
2022/08/26 02:37:29;;;;;;;11.28;3.60;;;;;;;17.82;89.98;96424.78;1714935;81;21010;-87
2022/08/26 02:39:54;;;;;;;8.78;4.08;;;;;;;17.82;89.74;96423.98;1710964;81;20983;-87
2022/08/26 02:42:20;;;;;;;6.10;3.52;;;;;;;17.78;89.58;96424.95;1726554;81;21014;-87
2022/08/26 02:44:47;;;;;;;5.22;3.58;;;;;;;17.78;89.08;96430.21;1726843;81;20983;-87
2022/08/26 02:47:13;;;;;;;8.33;3.62;;;;;;;17.77;89.49;96427.30;1713702;82;20994;-87
2022/08/26 02:49:41;;;;;;;8.00;3.37;;;;;;;17.75;89.88;96428.55;1721708;81;20980;-87
2022/08/26 02:52:07;;;;;;;8.90;3.37;;;;;;;17.71;89.46;96426.86;1722343;81;20971;-86
2022/08/26 02:54:33;;;;;;;9.10;3.15;;;;;;;17.71;89.52;96433.44;1729348;82;21023;-86
2022/08/26 02:56:59;;;;;;;6.87;3.30;;;;;;;17.70;89.68;96430.00;1723464;83;20916;-87
2022/08/26 02:59:25;;;;;;;8.95;4.10;;;;;;;17.70;90.06;96418.70;1727039;81;21425;-87
2022/08/26 03:01:51;;;;;;;6.95;3.50;;;;;;;17.71;90.29;96421.61;1727602;83;20975;-87
2022/08/26 03:04:16;;;;;;;10.98;3.55;;;;;;;17.70;90.76;96430.00;1729428;81;20947;-87
2022/08/26 03:06:42;;;;;;;7.85;3.50;;;;;;;17.69;91.19;96425.78;1728153;81;20947;-87
2022/08/26 03:09:08;;;;;;;9.65;4.53;;;;;;;17.69;90.91;96423.16;1724646;82;20924;-87
2022/08/26 03:11:35;;;;;;;6.65;3.30;;;;;;;17.68;91.37;96420.23;1689074;83;21008;-87
2022/08/26 03:14:02;;;;;;;7.83;3.05;;;;;;;17.70;91.72;96418.18;1724128;83;21011;-87
2022/08/26 03:16:31;;;;;;;11.15;3.30;;;;;;;17.72;91.39;96426.35;1716841;83;20940;-87
2022/08/26 03:18:57;;;;;;;8.35;3.60;;;;;;;17.69;91.18;96423.16;1718555;81;20980;-87
2022/08/26 03:21:23;;;;;;;8.15;4.50;;;;;;;17.70;90.62;96423.44;1716148;81;20991;-87
2022/08/26 03:23:49;;;;;;;8.93;4.08;;;;;;;17.70;90.17;96423.95;1728950;83;21042;-87
2022/08/26 03:26:16;;;;;;;6.90;3.98;;;;;;;17.72;90.49;96418.47;1725589;82;21050;-87
2022/08/26 03:31:27;;;;;;;8.00;3.10;;;;;;;17.72;89.81;96411.38;1727044;81;21070;-86
2022/08/26 03:33:53;;;;;;;6.58;3.20;;;;;;;17.71;89.70;96411.09;1725434;82;21038;-87
2022/08/26 03:36:19;;;;;;;9.33;3.60;;;;;;;17.71;90.36;96407.16;1726786;81;21000;-87
2022/08/26 03:38:44;;;;;;;6.10;3.37;;;;;;;17.70;89.61;96406.36;1727787;83;21003;-87
2022/08/26 03:41:11;;;;;;;8.70;3.80;;;;;;;17.69;89.31;96410.53;1728937;81;20991;-87
2022/08/26 03:43:38;;;;;;;8.95;3.52;;;;;;;17.64;89.56;96412.49;1721806;81;21019;-87
2022/08/26 03:46:10;;;;;;;8.50;3.37;;;;;;;17.62;89.99;96411.13;1726457;83;20975;-87
2022/08/26 03:48:36;;;;;;;;;;;;;;;17.60;89.85;96410.55;1729470;81;21032;-87
2022/08/26 03:51:03;;;;;;;11.80;3.47;;;;;;;17.59;89.54;96414.20;1714108;83;20109;-84
2022/08/26 03:53:28;;;;;;;6.50;3.80;;;;;;;17.57;89.71;96414.91;1728118;81;20972;-87
2022/08/26 03:55:54;;;;;;;6.28;3.45;;;;;;;17.57;90.18;96410.97;1722351;82;20928;-85
2022/08/26 03:58:20;;;;;;;7.55;4.28;;;;;;;17.54;90.17;96409.60;1694814;83;21029;-87
2022/08/26 04:00:46;;;;;;;6.20;3.58;;;;;;;17.52;90.52;96408.23;1716840;81;20979;-87
2022/08/26 04:03:56;;;;;;;7.17;3.95;;;;;;;17.51;91.09;96409.25;1724743;83;21015;-87
2022/08/26 04:05:40;;;;;;;7.72;3.67;;;;;;;17.51;90.73;96411.88;1714966;81;21301;-87
2022/08/26 04:08:06;;;;;;;8.23;3.30;;;;;;;17.52;90.62;96410.34;1730095;83;20985;-86
2022/08/26 04:10:31;;;;;;;7.33;3.27;;;;;;;17.56;90.71;96409.38;1723974;81;21381;-86
2022/08/26 04:12:57;;;;;;;8.00;3.67;;;;;;;17.56;91.18;96408.86;1728098;83;20984;-87
2022/08/26 04:15:23;;;;;;;8.35;3.42;;;;;;;17.58;90.97;96401.58;1727670;81;21456;-87
2022/08/26 04:17:49;;;;;;;8.03;3.95;;;;;;;17.59;90.81;96400.55;1725833;81;21314;-86
2022/08/26 04:20:17;;;;;;;5.55;3.47;;;;;;;17.60;90.70;96404.78;1725608;81;20964;-87
2022/08/26 04:22:44;;;;;;;7.58;3.83;;;;;;;17.59;90.55;96406.33;1725200;81;20976;-87
2022/08/26 04:25:11;;;;;;;7.90;3.60;;;;;;;17.56;90.36;96404.92;1702136;83;21937;-85
2022/08/26 04:27:37;;;;;;;10.48;3.33;;;;;;;17.57;90.78;96401.78;1722387;81;21031;-86
2022/08/26 04:30:05;;;;;;;5.08;2.80;;;;;;;17.60;91.22;96401.35;1715318;82;21083;-86
2022/08/26 04:32:30;;;;;;;7.58;3.47;;;;;;;17.63;91.29;96401.70;1713018;83;21039;-87
2022/08/26 04:34:56;;;;;;;8.65;3.80;;;;;;;17.64;90.74;96403.30;1725194;82;21318;-88
2022/08/26 04:37:23;;;;;;;4.95;3.30;;;;;;;17.66;91.20;96404.38;1679961;83;21049;-87
2022/08/26 04:39:52;;;;;;;9.65;3.92;;;;;;;17.65;90.97;96406.72;1723506;82;20974;-87
2022/08/26 04:42:17;;;;;;;7.53;3.45;;;;;;;17.64;90.81;96401.19;1724276;83;20940;-87
2022/08/26 04:44:44;;;;;;;8.10;3.52;;;;;;;17.63;91.10;96399.58;1724215;82;20939;-86
2022/08/26 04:47:10;;;;;;;8.88;3.40;;;;;;;17.62;91.15;96398.78;1721882;82;21007;-87
2022/08/26 04:49:37;;;;;;;7.00;3.08;;;;;;;17.64;91.60;96397.24;1703750;82;21040;-87
2022/08/26 04:52:04;;;;;;;7.58;3.40;;;;;;;17.64;91.68;96393.30;1695642;82;21030;-87
2022/08/26 04:54:30;;;;;;;7.92;3.35;;;;;;;17.64;91.66;96391.47;1710110;84;21086;-85
2022/08/26 04:56:56;;;;;;;6.90;3.80;;;;;;;17.66;91.76;96392.56;1761462;80;21429;-87
2022/08/26 04:59:22;;;;;;;7.17;3.90;;;;;;;17.65;91.76;96398.33;1692985;83;21461;-87
2022/08/26 05:01:50;;;;;;;8.30;3.52;;;;;;;17.65;92.13;96394.38;1721172;82;20971;-87
2022/08/26 05:04:17;;;;;;;7.55;3.42;;;;;;;17.64;92.11;96394.09;1691313;83;20971;-87
2022/08/26 05:06:43;;;;;;;6.10;3.58;;;;;;;17.65;92.17;96393.59;1713337;83;21373;-87
2022/08/26 05:09:11;;;;;;;8.10;3.20;;;;;;;17.66;92.39;96388.62;1698404;82;21039;-87
2022/08/26 05:11:37;;;;;;;6.40;3.20;;;;;;;17.69;92.50;96393.45;1708369;82;20982;-87
2022/08/26 05:14:04;;;;;;;9.48;3.75;;;;;;;17.72;92.53;96394.30;1705340;82;20968;-86
2022/08/26 05:16:30;;;;;;;8.23;3.40;;;;;;;17.74;92.60;96392.79;1713921;83;20971;-87
2022/08/26 05:18:56;;;;;;;8.90;4.28;;;;;;;17.77;92.49;96394.96;1708101;83;20973;-87
2022/08/26 05:21:25;;;;;;;8.50;3.87;;;;;;;17.78;92.80;96395.25;1723462;81;20952;-87
2022/08/26 05:23:50;;;;;;;6.17;3.42;;;;;;;17.79;93.10;96400.27;1707646;83;20976;-87
2022/08/26 05:26:17;;;;;;;7.22;3.20;;;;;;;17.77;93.03;96395.76;1718647;83;21307;-86
2022/08/26 05:28:43;;;;;;;7.53;3.40;;;;;;;17.78;93.20;96392.62;1717665;81;21077;-87
2022/08/26 05:31:14;;;;;;;7.50;3.45;;;;;;;17.81;93.42;96395.59;1720024;83;21341;-87
2022/08/26 05:33:40;;;;;;;6.90;2.95;;;;;;;17.82;93.36;96393.76;1715667;83;21020;-87
2022/08/26 05:36:11;;;;;;;8.63;3.08;;;;;;;17.84;93.48;96395.13;1705390;82;21089;-87
2022/08/26 05:38:37;;;;;;;5.67;3.20;;;;;;;17.86;93.42;96398.33;1680613;83;21062;-87
2022/08/26 05:41:03;;;;;;;8.90;3.72;;;;;;;17.91;93.48;96396.35;1723003;82;21055;-87
2022/08/26 05:43:29;;;;;;;6.45;3.52;;;;;;;17.92;93.54;96401.38;1710638;82;21342;-86
2022/08/26 05:45:56;;;;;;;7.83;3.67;;;;;;;17.93;93.75;96397.72;1726677;81;21026;-86
2022/08/26 05:48:22;;;;;;;6.37;3.20;;;;;;;17.95;93.85;96400.92;1719385;82;20959;-86
2022/08/26 05:50:49;;;;;;;6.37;3.25;;;;;;;17.97;93.80;96392.29;1717167;81;20986;-87
2022/08/26 05:53:19;;;;;;;6.12;3.50;;;;;;;18.00;93.73;96401.03;1719945;82;20979;-86
2022/08/26 05:55:49;;;;;;;6.92;2.58;;;;;;;18.03;93.91;96393.71;1693715;82;21006;-86
2022/08/26 05:58:16;;;;;;;4.87;3.08;;;;;;;18.06;93.99;96398.02;1714594;83;21004;-85
2022/08/26 06:00:41;;;;;;;4.42;3.15;;;;;;;18.08;93.84;96393.33;1714009;83;21419;-85
2022/08/26 06:03:07;;;;;;;6.08;3.55;;;;;;;18.09;93.88;96390.98;1692826;83;20955;-84
2022/08/26 06:05:39;;;;;;;5.67;3.52;;;;;;;18.11;94.02;96393.39;1713575;81;21023;-84
2022/08/26 06:08:12;;;;;;;6.17;3.20;;;;;;;18.12;94.17;96387.90;1719339;82;20939;-84
2022/08/26 06:10:51;;;;;;;7.67;3.17;;;;;;;18.14;94.35;96388.98;1708515;82;21435;-85
2022/08/26 06:13:19;;;;;;;5.90;3.40;;;;;;;18.19;94.37;96394.34;1715126;82;21026;-87
2022/08/26 06:15:47;;;;;;;7.00;2.98;;;;;;;18.23;94.43;96391.56;1722709;82;20938;-84
2022/08/26 06:18:14;;;;;;;4.10;2.67;;;;;;;18.28;94.67;96395.61;1726092;83;21358;-83
2022/08/26 06:20:43;;;;;;;3.65;2.62;;;;;;;18.33;94.80;96392.28;1722925;82;21007;-84
2022/08/26 06:25:55;;;;;;;8.48;3.80;;;;;;;18.42;94.70;96397.49;1696138;83;20973;-85
2022/08/26 06:28:23;;;;;;;4.40;2.87;;;;;;;18.47;94.92;96397.08;1726418;81;20965;-85
2022/08/26 06:30:50;;;;;;;7.08;3.55;;;;;;;18.52;95.20;96393.23;1716352;83;20988;-85
2022/08/26 06:33:16;;;;;;;7.80;3.12;;;;;;;18.56;95.37;96395.70;1706967;83;20898;-87
2022/08/26 06:35:42;;;;;;;6.87;2.65;;;;;;;18.62;95.58;96394.48;1720835;83;21419;-87
2022/08/26 06:38:08;;;;;;;5.30;3.10;;;;;;;18.66;96.02;96403.02;1698902;83;21007;-87
2022/08/26 06:40:44;;;;;;;9.03;2.95;;;;;;;18.71;96.27;96401.84;1689191;83;21018;-87
2022/08/26 06:43:11;;;;;;;7.22;3.50;;;;;;;18.77;96.46;96400.09;1741088;81;20961;-87
2022/08/26 06:45:38;;;;;;;7.00;3.30;;;;;;;18.82;96.92;96397.04;1681606;84;21072;-87
2022/08/26 06:48:05;;;;;;;7.12;3.22;;;;;;;18.89;97.16;96390.34;1707408;83;21295;-87
2022/08/26 06:50:33;;;;;;;4.17;3.47;;;;;;;18.95;97.49;96395.18;1701756;83;21079;-86
2022/08/26 06:52:59;;;;;;;9.45;4.87;;;;;;;19.04;97.64;96393.79;1749976;80;20976;-87
2022/08/26 06:55:25;;;;;;;7.62;3.80;;;;;;;19.10;97.79;96391.01;1747047;80;22099;-87
2022/08/26 06:57:50;;;;;;;7.95;3.67;;;;;;;19.18;97.69;96389.30;1677870;83;20999;-87
2022/08/26 07:00:17;;;;;;;8.63;4.58;;;;;;;19.25;96.63;96387.05;1719442;83;20975;-87
2022/08/26 07:02:42;;;;;;;8.38;4.35;;;;;;;19.32;96.05;96396.92;1697175;84;21014;-86
2022/08/26 07:05:09;;;;;;;8.85;4.12;;;;;;;19.33;95.35;96400.63;1703300;82;20941;-87
2022/08/26 07:07:35;;;;;;;8.30;4.90;;;;;;;19.36;95.61;96401.50;1706410;84;20980;-87
2022/08/26 07:10:00;;;;;;;9.05;4.08;;;;;;;19.37;96.18;96396.52;1688434;83;20983;-87
2022/08/26 07:12:26;;;;;;;9.58;4.50;;;;;;;19.40;96.42;96398.67;1692381;83;20987;-87
2022/08/26 07:14:52;;;;;;;9.00;4.25;;;;;;;19.45;96.52;96402.70;1699667;83;20971;-85
2022/08/26 07:17:18;;;;;;;8.30;3.77;;;;;;;19.47;96.49;96397.19;1707572;84;21359;-85
2022/08/26 07:19:45;;;;;;;7.47;3.42;;;;;;;19.55;96.47;96400.80;1707707;83;20967;-85
2022/08/26 07:22:11;;;;;;;5.95;4.10;;;;;;;19.59;96.19;96400.60;1721710;82;20989;-84
2022/08/26 07:24:39;;;;;;;6.28;3.75;;;;;;;19.67;96.03;96395.45;1686942;83;21011;-85
2022/08/26 07:27:07;;;;;;;9.85;4.17;;;;;;;19.72;95.81;96392.39;1718837;83;21062;-85
2022/08/26 07:29:34;;;;;;;9.08;4.10;;;;;;;19.75;96.10;96390.59;1692090;82;21053;-85
2022/08/26 07:32:01;;;;;;;6.30;4.17;;;;;;;19.77;95.70;96393.78;1733920;81;21298;-83
2022/08/26 07:34:27;;;;;;;7.90;3.83;;;;;;;19.81;95.51;96391.98;1705949;82;20967;-83
2022/08/26 07:36:53;;;;;;;8.03;4.03;;;;;;;19.88;95.57;96398.71;1772519;79;20956;-84
2022/08/26 07:39:18;;;;;;;8.30;4.20;;;;;;;19.93;95.57;96393.50;1712069;83;21071;-85
2022/08/26 07:41:46;;;;;;;10.98;4.90;;;;;;;20.00;95.73;96396.77;1709234;81;20951;-86
2022/08/26 07:44:13;;;;;;;11.57;4.80;;;;;;;20.08;96.41;96398.22;1681019;82;21443;-85
2022/08/26 07:46:39;;;;;;;8.15;4.78;;;;;;;20.14;95.86;96402.52;1733590;81;21011;-86
2022/08/26 07:49:05;;;;;;;8.10;4.55;;;;;;;20.18;95.61;96397.06;1706522;82;21057;-84
2022/08/26 07:51:31;;;;;;;11.50;4.30;;;;;;;20.22;95.65;96399.48;1733262;82;20963;-84
2022/08/26 07:53:57;;;;;;;14.30;5.25;;;;;;;20.27;95.64;96401.39;1701421;82;21436;-83
2022/08/26 07:56:23;;;;;;;10.10;4.75;;;;;;;20.33;95.73;96405.69;1729155;82;21002;-84
2022/08/26 07:58:50;;;;;;;6.47;4.22;;;;;;;20.39;96.28;96402.10;1694325;82;20959;-84
2022/08/26 08:01:16;;;;;;;8.80;4.22;;;;;;;20.44;96.81;96397.44;1730327;82;21026;-84
2022/08/26 08:03:41;;;;;;;12.33;5.75;;;;;;;20.54;97.34;96398.38;1695532;84;21256;-84
2022/08/26 08:06:08;;;;;;;6.85;4.37;;;;;;;20.66;97.32;96386.37;1729030;82;20935;-84
2022/08/26 08:08:34;;;;;;;12.70;5.87;;;;;;;20.79;97.74;96390.48;1702564;83;20983;-84
2022/08/26 08:11:01;;;;;;;13.98;6.33;;;;;;;20.95;97.22;96389.63;1726129;82;20958;-83
2022/08/26 08:13:27;;;;;;;9.10;5.85;;;;;;;21.07;96.58;96388.98;1725016;81;21009;-83
2022/08/26 08:15:53;;;;;;;12.63;6.17;;;;;;;21.15;96.93;96390.37;1693381;83;21029;-83
2022/08/26 08:18:19;;;;;;;11.73;6.45;;;;;;;21.27;96.97;96387.89;1738663;82;21405;-85
2022/08/26 08:20:47;;;;;;;9.85;7.08;;;;;;;21.39;96.39;96383.00;1691492;82;21022;-85
2022/08/26 08:23:14;;;;;;;10.30;5.05;;;;;;;21.53;96.37;96383.66;1690578;82;21082;-85
2022/08/26 08:25:40;;;;;;;8.28;5.55;;;;;;;21.66;96.80;96383.78;1710531;82;21015;-85
2022/08/26 08:28:06;;;;;;;9.93;6.10;;;;;;;21.81;96.76;96379.94;1721736;81;21054;-85
2022/08/26 08:30:32;;;;;;;14.95;6.53;;;;;;;21.98;95.97;96382.45;1760687;80;21507;-84
2022/08/26 08:32:58;;;;;;;13.68;6.12;;;;;;;22.13;94.45;96385.77;1762714;80;21011;-84
2022/08/26 08:35:25;;;;;;;11.57;5.95;;;;;;;22.24;95.48;96374.70;1747957;80;20972;-85
2022/08/26 08:37:53;;;;;;;12.65;6.87;;;;;;;22.34;94.65;96380.86;1727473;81;20985;-83
2022/08/26 08:40:19;;;;;;;12.23;5.97;;;;;;;22.43;93.00;96375.34;1761581;80;21015;-83
2022/08/26 08:42:53;;;;;;;9.93;5.90;;;;;;;22.58;92.86;96375.14;1765585;80;20987;-83
2022/08/26 08:45:51;;;;;;;9.10;6.10;;;;;;;22.71;90.67;96374.69;1766135;80;21035;-82
2022/08/26 08:48:25;;;;;;;10.13;5.97;;;;;;;22.84;92.32;96377.42;1770221;80;21024;-83
2022/08/26 08:51:04;;;;;;;9.93;6.28;;;;;;;22.96;93.07;96374.83;1765785;79;20992;-82
2022/08/26 08:53:40;;;;;;;9.48;5.72;;;;;;;23.06;92.44;96374.04;1750125;81;21045;-83
2022/08/26 08:56:26;;;;;;;11.18;6.03;;;;;;;23.08;90.18;96369.27;1763604;81;21124;-83
2022/08/26 08:59:18;;;;;;;10.03;6.22;;;;;;;23.15;91.35;96365.86;1769241;81;21119;-83
2022/08/26 09:01:52;;;;;;;10.53;5.50;;;;;;;23.19;90.14;96365.59;1761357;80;21000;-83
2022/08/26 09:05:09;;;;;;;10.53;6.12;;;;;;;23.21;87.84;96360.03;1766018;81;21043;-83
2022/08/26 09:07:39;;;;;;;10.78;6.30;;;;;;;23.26;89.48;96360.83;1736306;81;21417;-85
2022/08/26 09:10:33;;;;;;;10.90;6.35;;;;;;;23.31;85.76;96357.41;1758653;79;21343;-85
2022/08/26 09:13:01;;;;;;;11.75;6.60;;;;;;;23.38;87.82;96355.28;1758075;80;21366;-84
2022/08/26 09:15:48;;;;;;;7.92;5.33;;;;;;;23.47;88.94;96352.39;1759101;80;21067;-85
2022/08/26 09:18:25;;;;;;;10.45;6.22;;;;;;;23.52;88.23;96356.90;1766229;81;21609;-85
2022/08/26 09:21:03;;;;;;;13.68;6.28;;;;;;;23.57;87.83;96357.72;1765759;80;21374;-85
2022/08/26 09:23:30;;;;;;;10.48;6.65;;;;;;;23.61;86.18;96350.84;1760896;80;21003;-84
2022/08/26 09:25:59;;;;;;;13.25;6.80;;;;;;;23.68;86.10;96351.10;1761869;80;21028;-85
2022/08/26 09:28:27;;;;;;;10.05;5.67;;;;;;;23.74;85.74;96355.33;1759785;81;21039;-84
2022/08/26 09:31:20;;;;;;;8.40;5.78;;;;;;;23.73;84.93;96343.93;1721593;81;21011;-85
2022/08/26 09:33:47;;;;;;;10.38;5.78;;;;;;;23.75;87.11;96348.44;1684602;84;21023;-85
2022/08/26 09:36:21;;;;;;;10.63;5.70;;;;;;;23.72;82.41;96344.20;1707056;84;21018;-85
2022/08/26 09:38:51;;;;;;;9.83;6.33;;;;;;;23.76;84.45;96339.97;1694201;84;20971;-85
2022/08/26 09:41:30;;;;;;;12.40;6.35;;;;;;;23.78;86.03;96343.95;1694466;83;21003;-85
2022/08/26 09:44:12;;;;;;;16.00;7.10;;;;;;;23.81;84.81;96338.10;1694115;84;20969;-84
2022/08/26 09:46:51;;;;;;;7.72;5.40;;;;;;;23.84;86.17;96338.09;1698378;84;21027;-84
2022/08/26 09:49:38;;;;;;;10.50;5.55;;;;;;;23.83;84.45;96340.48;1712537;82;20984;-84
2022/08/26 09:52:22;;;;;;;9.23;5.70;;;;;;;23.88;83.78;96329.86;1670447;84;21088;-85
2022/08/26 09:55:14;;;;;;;13.98;6.08;;;;;;;23.91;83.98;96331.97;1691653;84;21296;-84
2022/08/26 09:57:53;;;;;;;9.38;5.20;;;;;;;23.94;84.04;96332.26;1689025;83;21000;-85
2022/08/26 10:00:37;;;;;;;7.80;5.72;;;;;;;23.92;85.05;96329.08;1706888;83;21513;-86
2022/08/26 10:03:07;;;;;;;8.75;5.67;;;;;;;23.92;83.62;96329.61;1680728;84;20967;-85
2022/08/26 10:05:47;;;;;;;10.08;5.80;;;;;;;23.97;84.23;96330.13;1706866;82;20983;-85
2022/08/26 10:08:35;;;;;;;9.05;5.33;;;;;;;24.07;83.36;96326.91;1691403;83;21395;-85
2022/08/26 10:11:15;;;;;;;10.85;5.97;;;;;;;24.07;83.36;96326.91;1676257;84;21015;-85
2022/08/26 10:13:45;;;;;;;9.75;5.28;;;;;;;24.09;84.21;96324.02;1670262;85;20998;-85
2022/08/26 10:16:37;;;;;;;8.05;4.95;;;;;;;24.10;83.10;96318.97;1673181;83;21035;-84
2022/08/26 10:19:10;;;;;;;13.03;5.50;;;;;;;24.15;82.05;96318.41;1703945;84;20994;-85
2022/08/26 10:21:48;;;;;;;9.28;5.67;;;;;;;24.24;82.83;96315.98;1693953;83;21367;-85
2022/08/26 10:24:24;;;;;;;8.85;5.70;;;;;;;24.29;82.17;96317.34;1695748;84;20994;-86
2022/08/26 10:27:11;;;;;;;7.55;5.92;;;;;;;24.38;82.70;96317.58;1696765;83;20979;-86
2022/08/26 10:29:41;;;;;;;8.38;6.20;;;;;;;24.34;83.48;96308.56;1702035;83;21048;-86
2022/08/26 10:32:25;;;;;;;12.58;6.12;;;;;;;24.49;82.76;96314.62;1707208;83;21007;-86
2022/08/26 10:34:50;;;;;;;13.00;6.53;;;;;;;24.68;81.59;96314.01;1696723;82;21016;-85
2022/08/26 10:37:21;;;;;;;8.48;5.37;;;;;;;24.68;81.59;96314.01;1733357;82;21015;-86
2022/08/26 10:39:54;;;;;;;9.98;6.30;;;;;;;24.78;78.85;96317.42;1699759;82;21397;-84
2022/08/26 10:42:37;;;;;;;10.98;6.30;;;;;;;24.85;79.22;96317.91;1727318;81;21310;-83
2022/08/26 10:45:23;;;;;;;8.28;5.17;;;;;;;24.92;78.16;96314.17;1700243;83;21029;-83
2022/08/26 10:47:54;;;;;;;7.95;5.78;;;;;;;25.00;76.73;96314.41;1731377;82;21015;-83
2022/08/26 10:50:22;;;;;;;;;;;;;;;25.07;78.16;96316.23;1696286;82;21387;-84
2022/08/26 10:53:16;;;;;;;9.40;5.97;;;;;;;25.15;81.06;96314.84;1768444;79;20375;-83
2022/08/26 10:56:00;;;;;;;9.90;5.90;;;;;;;25.20;79.41;96314.81;1679415;82;21003;-83
2022/08/26 10:58:59;;;;;;;10.50;5.67;;;;;;;25.22;77.42;96312.69;1714738;81;21047;-83
2022/08/26 11:01:42;;;;;;;9.10;5.50;;;;;;;25.29;77.75;96312.37;1701707;83;21019;-83
2022/08/26 11:04:37;;;;;;;8.88;5.58;;;;;;;25.30;77.71;96313.95;1730695;81;20947;-84
2022/08/26 11:07:38;;;;;;;11.20;5.80;;;;;;;25.37;76.41;96309.10;1726200;81;20959;-83
2022/08/26 11:10:22;;;;;;;8.10;5.87;;;;;;;25.46;77.92;96306.66;1685522;82;21371;-84
2022/08/26 11:13:05;;;;;;;9.03;6.17;;;;;;;25.50;77.95;96304.48;1735380;81;21086;-84
2022/08/26 11:15:39;;;;;;;7.65;5.22;;;;;;;25.56;77.59;96304.72;1739224;81;21381;-85
2022/08/26 11:18:08;;;;;;;8.58;6.03;;;;;;;25.58;76.15;96298.59;1719057;81;21049;-84
2022/08/26 11:20:40;;;;;;;10.15;6.40;;;;;;;25.59;75.77;96297.51;1725768;81;20987;-85
2022/08/26 11:23:21;;;;;;;8.85;6.00;;;;;;;25.64;76.86;96295.34;1703311;83;21059;-84
2022/08/26 11:26:12;;;;;;;10.80;6.25;;;;;;;25.69;78.45;96292.65;1737521;81;21013;-85
2022/08/26 11:28:47;;;;;;;11.22;6.40;;;;;;;25.76;74.03;96291.02;1696318;83;21430;-85
2022/08/26 11:31:32;;;;;;;9.33;6.15;;;;;;;25.86;76.90;96288.23;1738572;81;21037;-85
2022/08/26 11:34:05;;;;;;;13.25;6.60;;;;;;;25.94;76.15;96280.98;1732368;81;21012;-85
2022/08/26 11:36:47;;;;;;;10.63;6.50;;;;;;;25.96;74.27;96278.83;1698575;83;20993;-85
2022/08/26 11:39:47;;;;;;;7.75;5.97;;;;;;;26.00;75.84;96275.85;1725790;81;21007;-85
2022/08/26 11:42:27;;;;;;;11.30;6.53;;;;;;;26.05;75.28;96274.49;1738421;81;21046;-85
2022/08/26 11:44:53;;;;;;;10.28;7.17;;;;;;;26.10;77.06;96274.42;1710016;82;21474;-85
2022/08/26 11:47:26;;;;;;;11.22;5.92;;;;;;;26.10;74.56;96262.98;1729591;81;21035;-85
2022/08/26 11:50:12;;;;;;;10.78;5.47;;;;;;;26.15;74.40;96266.91;1707769;82;21019;-85
2022/08/26 11:52:37;;;;;;;7.22;5.92;;;;;;;26.21;72.48;96258.59;1718996;81;21272;-85